createdAt,value
2023-04-14T00:00:08.070Z,6.00
2023-04-14T00:03:22.047Z,4.75
2023-04-14T00:06:28.202Z,6.70
2023-04-14T00:12:37.005Z,5.07
2023-04-14T00:15:43.157Z,4.60
2023-04-14T00:18:47.071Z,4.32
2023-04-14T00:21:51.821Z,7.72
2023-04-14T00:24:56.110Z,5.47
2023-04-14T00:28:00.353Z,4.72
2023-04-14T00:31:04.480Z,5.13
2023-04-14T00:34:08.622Z,4.38
2023-04-14T00:37:13.099Z,4.47
2023-04-14T00:40:17.656Z,4.93
2023-04-14T00:43:22.179Z,4.30
2023-04-14T00:46:26.758Z,4.50
2023-04-14T00:49:31.204Z,4.28
2023-04-14T00:52:35.658Z,3.72
2023-04-14T00:55:41.871Z,4.20
2023-04-14T00:58:46.567Z,3.88
2023-04-14T01:01:51.251Z,3.95
2023-04-14T01:04:57.020Z,3.60
2023-04-14T01:08:02.442Z,4.15
2023-04-14T01:11:13.607Z,4.43
2023-04-14T01:14:43.331Z,4.22
2023-04-14T01:17:58.658Z,4.63
2023-04-14T01:21:18.781Z,2.85
2023-04-14T01:24:26.670Z,4.63
2023-04-14T01:27:52.899Z,1.95
2023-04-14T01:31:18.356Z,3.13
2023-04-14T01:34:49.415Z,2.58
2023-04-14T01:38:04.925Z,3.50
2023-04-14T01:41:14.233Z,3.67
2023-04-14T01:44:20.794Z,2.60
2023-04-14T01:47:27.082Z,2.70
2023-04-14T01:50:33.747Z,3.40
2023-04-14T01:53:44.050Z,4.90
2023-04-14T01:56:49.895Z,3.35
2023-04-14T01:59:58.602Z,6.43
2023-04-14T02:03:06.191Z,5.20
2023-04-14T02:06:14.147Z,5.45
2023-04-14T02:09:20.260Z,3.70
2023-04-14T02:12:26.473Z,6.63
2023-04-14T02:15:33.156Z,4.78
2023-04-14T02:18:39.675Z,3.95
2023-04-14T02:21:44.844Z,3.22
2023-04-14T02:24:49.361Z,2.78
2023-04-14T02:28:04.790Z,3.10
2023-04-14T02:31:13.337Z,2.38
2023-04-14T02:34:25.726Z,2.90
2023-04-14T02:37:44.635Z,2.53
2023-04-14T02:40:54.884Z,2.72
2023-04-14T02:44:12.208Z,4.97
2023-04-14T02:47:25.238Z,4.43
2023-04-14T02:50:34.652Z,5.63
2023-04-14T02:53:50.201Z,3.05
2023-04-14T02:57:12.068Z,2.53
2023-04-14T03:00:20.546Z,2.88
2023-04-14T03:03:29.452Z,3.08
2023-04-14T03:06:39.898Z,2.67
2023-04-14T03:09:46.544Z,8.77
2023-04-14T03:12:53.374Z,4.07
2023-04-14T03:16:00.596Z,2.67
2023-04-14T03:19:08.973Z,3.08
2023-04-14T03:22:19.319Z,7.35
2023-04-14T03:25:28.508Z,3.20
2023-04-14T03:28:37.544Z,2.40
2023-04-14T03:31:46.638Z,3.30
2023-04-14T03:34:59.082Z,35.28
2023-04-14T03:38:09.925Z,3.45
2023-04-14T03:41:15.825Z,6.78
2023-04-14T03:44:22.706Z,5.95
2023-04-14T03:47:32.058Z,5.07
2023-04-14T03:50:44.552Z,4.82
2023-04-14T03:53:49.042Z,3.63
2023-04-14T03:56:57.661Z,3.72
2023-04-14T04:00:06.251Z,7.45
2023-04-14T04:03:18.559Z,4.22
2023-04-14T04:06:23.825Z,2.92
2023-04-14T04:09:30.701Z,4.85
2023-04-14T04:12:39.051Z,4.05
2023-04-14T04:15:46.773Z,5.20
2023-04-14T04:18:53.255Z,3.45
2023-04-14T04:22:05.912Z,4.93
2023-04-14T04:25:15.255Z,3.50
2023-04-14T04:28:28.640Z,3.80
2023-04-14T04:31:35.179Z,4.05
2023-04-14T04:34:40.768Z,3.40
2023-04-14T04:37:45.640Z,4.20
2023-04-14T04:40:50.741Z,4.80
2023-04-14T04:44:00.293Z,4.05
2023-04-14T04:47:05.009Z,3.65
2023-04-14T04:50:09.676Z,2.60
2023-04-14T04:53:14.637Z,2.73
2023-04-14T04:56:19.332Z,2.00
2023-04-14T04:59:23.692Z,2.53
2023-04-14T05:02:28.331Z,3.28
2023-04-14T05:05:37.305Z,2.60
2023-04-14T05:08:41.720Z,3.50
2023-04-14T05:11:46.326Z,2.20
2023-04-14T05:14:51.215Z,2.55
2023-04-14T05:17:55.219Z,1.90
2023-04-14T05:21:14.174Z,2.50
2023-04-14T05:24:18.620Z,2.10
2023-04-14T05:27:22.980Z,2.00
2023-04-14T05:30:27.452Z,1.95
2023-04-14T05:33:32.021Z,3.17
2023-04-14T05:36:36.066Z,3.72
2023-04-14T05:39:41.809Z,2.42
2023-04-14T05:42:45.742Z,2.00
2023-04-14T05:45:49.673Z,2.00
2023-04-14T05:48:53.893Z,2.50
2023-04-14T05:51:58.024Z,9.98
2023-04-14T05:55:02.368Z,4.28
2023-04-14T05:58:06.847Z,1.70
2023-04-14T06:01:11.007Z,4.05
2023-04-14T06:04:16.564Z,3.05
2023-04-14T06:07:21.262Z,4.05
2023-04-14T06:10:25.318Z,5.22
2023-04-14T06:13:31.992Z,2.40
2023-04-14T06:16:38.122Z,2.67
2023-04-14T06:19:54.417Z,2.45
2023-04-14T06:23:01.704Z,2.20
2023-04-14T06:26:06.446Z,1.75
2023-04-14T06:29:10.453Z,1.27
2023-04-14T06:32:14.534Z,1.60
2023-04-14T06:35:31.975Z,1.38
2023-04-14T06:38:37.710Z,1.85
2023-04-14T06:41:41.660Z,1.80
2023-04-14T06:44:49.369Z,2.92
2023-04-14T06:47:53.221Z,3.38
2023-04-14T06:50:58.186Z,2.67
2023-04-14T06:54:04.635Z,3.03
2023-04-14T06:57:09.160Z,2.45
2023-04-14T07:00:14.492Z,3.35
2023-04-14T07:03:18.672Z,2.85
2023-04-14T07:06:23.022Z,1.52
2023-04-14T07:09:27.234Z,3.10
2023-04-14T07:12:31.721Z,3.30
2023-04-14T07:15:35.983Z,1.88
2023-04-14T07:18:40.366Z,1.90
2023-04-14T07:21:46.837Z,1.45
2023-04-14T07:24:51.727Z,1.60
2023-04-14T07:28:03.172Z,2.20
2023-04-14T07:31:11.261Z,3.13
2023-04-14T07:34:15.543Z,3.17
2023-04-14T07:37:20.680Z,2.70
2023-04-14T07:40:25.056Z,2.75
2023-04-14T07:43:30.649Z,2.30
2023-04-14T07:46:35.177Z,3.25
2023-04-14T07:49:39.771Z,4.13
2023-04-14T07:52:43.638Z,5.78
2023-04-14T07:55:48.097Z,3.17
2023-04-14T07:58:52.379Z,2.40
2023-04-14T08:01:56.565Z,2.72
2023-04-14T08:05:00.550Z,34.13
2023-04-14T08:08:06.679Z,5.65
2023-04-14T08:11:11.305Z,70.90
2023-04-14T08:14:16.340Z,5.20
2023-04-14T08:17:21.653Z,5.28
2023-04-14T08:20:25.877Z,6.40
2023-04-14T08:23:29.853Z,4.82
2023-04-14T08:27:12.181Z,14.18
2023-04-14T08:30:40.769Z,10.18
2023-04-14T08:34:03.406Z,7.82
2023-04-14T08:37:10.081Z,5.85
2023-04-14T08:40:17.763Z,7.32
2023-04-14T08:43:22.787Z,5.00
2023-04-14T08:46:29.145Z,10.23
2023-04-14T08:49:43.539Z,29.52
2023-04-14T08:52:50.360Z,62.38
2023-04-14T08:55:58.067Z,42.70
2023-04-14T08:59:03.372Z,27.85
2023-04-14T09:02:08.015Z,15.50
2023-04-14T09:05:13.867Z,47.65
2023-04-14T09:08:18.184Z,40.38
2023-04-14T09:11:23.378Z,45.65
2023-04-14T09:14:28.450Z,35.47
2023-04-14T09:17:37.434Z,35.08
2023-04-14T09:20:42.409Z,18.88
2023-04-14T09:23:47.148Z,10.75
2023-04-14T09:26:53.894Z,13.20
2023-04-14T09:30:00.653Z,24.13
2023-04-14T09:33:08.397Z,12.02
2023-04-14T09:36:21.187Z,11.25
2023-04-14T09:39:25.150Z,13.77
2023-04-14T09:42:43.682Z,5.95
2023-04-14T09:45:48.461Z,5.10
2023-04-14T09:48:57.162Z,4.05
2023-04-14T09:52:11.274Z,4.57
2023-04-14T09:55:17.798Z,4.13
2023-04-14T09:58:27.321Z,3.95
2023-04-14T10:01:35.143Z,3.67
2023-04-14T10:04:40.021Z,4.13
2023-04-14T10:07:45.559Z,6.53
2023-04-14T10:10:49.867Z,5.82
2023-04-14T10:13:59.300Z,4.85
2023-04-14T10:17:03.724Z,5.95
2023-04-14T10:20:08.747Z,4.30
2023-04-14T10:23:13.534Z,3.70
2023-04-14T10:26:18.732Z,5.07
2023-04-14T10:29:23.962Z,9.38
2023-04-14T10:32:32.858Z,7.80
2023-04-14T10:35:47.936Z,7.25
2023-04-14T10:39:04.255Z,8.20
2023-04-14T10:42:09.208Z,6.95
2023-04-14T10:45:13.557Z,27.27
2023-04-14T10:48:18.440Z,13.68
2023-04-14T10:51:36.944Z,13.70
2023-04-14T10:55:02.122Z,16.27
2023-04-14T10:58:07.728Z,31.95
2023-04-14T11:01:33.163Z,89.38
2023-04-14T11:05:19.141Z,37.42
2023-04-14T11:08:28.049Z,29.70
2023-04-14T11:11:32.501Z,31.05
2023-04-14T11:14:37.483Z,39.45
2023-04-14T11:17:47.555Z,50.17
2023-04-14T11:20:54.060Z,38.95
2023-04-14T11:24:00.267Z,17.83
2023-04-14T11:27:05.594Z,13.23
2023-04-14T11:30:20.747Z,14.75
2023-04-14T11:33:32.555Z,14.00
2023-04-14T11:36:40.234Z,25.55
2023-04-14T11:39:45.251Z,13.80
2023-04-14T11:42:55.356Z,12.03
2023-04-14T11:46:01.744Z,12.70
2023-04-14T11:49:06.831Z,11.52
2023-04-14T11:52:11.388Z,14.45
2023-04-14T11:55:18.508Z,15.40
2023-04-14T11:58:25.438Z,17.58
2023-04-14T12:01:30.937Z,16.90
2023-04-14T12:04:35.901Z,15.65
2023-04-14T12:07:40.872Z,17.20
2023-04-14T12:10:47.689Z,17.45
2023-04-14T12:13:53.700Z,18.95
2023-04-14T12:16:59.530Z,19.33
2023-04-14T12:20:06.307Z,18.77
2023-04-14T12:23:10.855Z,16.23
2023-04-14T12:26:15.790Z,20.48
2023-04-14T12:29:23.748Z,22.13
2023-04-14T12:32:31.553Z,27.65
2023-04-14T12:35:36.115Z,32.30
2023-04-14T12:38:40.650Z,33.05
2023-04-14T12:41:44.700Z,27.92
2023-04-14T12:45:03.103Z,29.95
2023-04-14T12:48:07.864Z,28.55
2023-04-14T12:51:22.360Z,32.20
2023-04-14T12:54:27.096Z,30.65
2023-04-14T12:57:33.497Z,26.47
2023-04-14T13:00:38.145Z,24.60
2023-04-14T13:03:51.439Z,24.13
2023-04-14T13:06:56.371Z,24.05
2023-04-14T13:10:00.943Z,16.05
2023-04-14T13:13:10.599Z,20.57
2023-04-14T13:16:22.948Z,21.60
2023-04-14T13:19:31.193Z,16.65
2023-04-14T13:22:36.229Z,16.27
2023-04-14T13:25:40.703Z,18.75
2023-04-14T13:28:44.653Z,20.70
2023-04-14T13:31:49.045Z,21.95
2023-04-14T13:34:53.621Z,23.17
2023-04-14T13:37:59.969Z,24.23
2023-04-14T13:41:07.381Z,16.48
2023-04-14T13:44:16.357Z,17.15
2023-04-14T13:47:29.422Z,16.75
2023-04-14T13:50:40.421Z,15.10
2023-04-14T13:53:51.573Z,14.65
2023-04-14T13:57:02.864Z,14.15
2023-04-14T14:00:11.282Z,13.00
2023-04-14T14:03:18.253Z,16.30
2023-04-14T14:06:24.696Z,23.23
2023-04-14T14:09:30.432Z,21.65
2023-04-14T14:12:34.943Z,36.73
2023-04-14T14:15:40.127Z,29.63
2023-04-14T14:18:45.966Z,26.60
2023-04-14T14:25:06.899Z,18.92
2023-04-14T14:28:19.979Z,23.92
2023-04-14T14:31:24.722Z,30.27
2023-04-14T14:34:29.218Z,27.40
2023-04-14T14:37:33.710Z,22.58
2023-04-14T14:40:38.182Z,19.55
2023-04-14T14:43:42.616Z,12.13
2023-04-14T14:46:48.050Z,5.05
2023-04-14T14:49:59.586Z,12.65
2023-04-14T14:53:04.863Z,11.93
2023-04-14T14:56:09.384Z,5.53
2023-04-14T14:59:13.766Z,5.28
2023-04-14T15:02:18.492Z,3.08
2023-04-14T15:05:23.052Z,5.27
2023-04-14T15:08:27.422Z,6.68
2023-04-14T15:11:31.695Z,7.53
2023-04-14T15:14:36.478Z,5.35
2023-04-14T15:17:41.108Z,5.90
2023-04-14T15:20:45.680Z,5.35
2023-04-14T15:23:50.585Z,11.52
2023-04-14T15:26:54.962Z,12.63
2023-04-14T15:29:59.475Z,15.35
2023-04-14T15:33:04.047Z,8.43
2023-04-14T15:36:08.746Z,13.13
2023-04-14T15:39:13.465Z,8.57
2023-04-14T15:42:17.923Z,6.32
2023-04-14T15:45:22.505Z,4.95
2023-04-14T15:48:27.307Z,3.92
2023-04-14T15:51:31.741Z,3.33
2023-04-14T15:54:36.680Z,2.90
2023-04-14T15:57:41.594Z,3.40
2023-04-14T16:00:46.688Z,3.60
2023-04-14T16:03:52.616Z,3.20
2023-04-14T16:06:57.247Z,3.58
2023-04-14T16:10:02.249Z,3.58
2023-04-14T16:13:07.180Z,2.90
2023-04-14T16:16:13.757Z,2.85
2023-04-14T16:19:18.577Z,2.90
2023-04-14T16:22:23.886Z,2.70
2023-04-14T16:25:28.692Z,3.05
2023-04-14T16:28:33.174Z,2.78
2023-04-14T16:31:37.965Z,3.10
2023-04-14T16:34:42.122Z,2.67
2023-04-14T16:37:46.402Z,3.17
2023-04-14T16:40:58.308Z,3.65
2023-04-14T16:44:02.830Z,3.13
2023-04-14T16:47:07.658Z,3.20
2023-04-14T16:50:12.554Z,2.55
2023-04-14T16:53:17.620Z,3.10
2023-04-14T16:56:22.292Z,2.22
2023-04-14T16:59:26.910Z,2.30
2023-04-14T17:02:31.521Z,2.95
2023-04-14T17:05:36.146Z,2.67
2023-04-14T17:08:40.812Z,2.47
2023-04-14T17:11:45.446Z,2.75
2023-04-14T17:14:49.817Z,3.00
2023-04-14T17:17:54.279Z,2.50
2023-04-14T17:20:59.272Z,2.35
2023-04-14T17:24:05.564Z,2.20
2023-04-14T17:27:10.009Z,2.20
2023-04-14T17:30:14.900Z,2.38
2023-04-14T17:33:20.733Z,3.60
2023-04-14T17:36:25.054Z,3.53
2023-04-14T17:39:29.700Z,3.08
2023-04-14T17:42:35.111Z,5.13
2023-04-14T17:45:43.031Z,16.05
2023-04-14T17:48:47.742Z,4.80
2023-04-14T17:51:52.428Z,5.20
2023-04-14T17:54:56.774Z,50.17
2023-04-14T17:58:01.750Z,21.33
2023-04-14T18:01:06.594Z,32.60
2023-04-14T18:04:11.157Z,52.57
2023-04-14T18:07:15.630Z,45.17
2023-04-14T18:10:20.416Z,24.10
2023-04-14T18:13:24.704Z,13.02
2023-04-14T18:16:29.433Z,26.90
2023-04-14T18:19:36.623Z,7.03
2023-04-14T18:22:41.189Z,3.53
2023-04-14T18:28:53.191Z,9.43
2023-04-14T18:31:59.157Z,5.22
2023-04-14T18:35:03.050Z,4.80
2023-04-14T18:38:08.328Z,15.57
2023-04-14T18:41:13.154Z,44.60
2023-04-14T18:44:17.914Z,28.67
2023-04-14T18:47:23.102Z,25.42
2023-04-14T18:50:28.073Z,6.38
2023-04-14T18:53:32.733Z,4.93
2023-04-14T18:56:37.713Z,12.30
2023-04-14T18:59:42.789Z,9.38
2023-04-14T19:02:47.764Z,12.15
2023-04-14T19:05:52.846Z,19.35
2023-04-14T19:09:02.022Z,8.82
2023-04-14T19:12:12.815Z,7.90
2023-04-14T19:15:29.607Z,5.93
2023-04-14T19:18:33.944Z,6.78
2023-04-14T19:21:38.494Z,6.28
2023-04-14T19:24:43.095Z,7.28
2023-04-14T19:27:47.663Z,8.30
2023-04-14T19:30:51.823Z,7.57
2023-04-14T19:33:57.121Z,7.90
2023-04-14T19:37:04.932Z,7.78
2023-04-14T19:40:11.814Z,6.88
2023-04-14T19:43:19.643Z,6.40
2023-04-14T19:46:24.300Z,6.07
2023-04-14T19:49:29.154Z,5.88
2023-04-14T19:52:33.691Z,5.57
2023-04-14T19:55:38.108Z,5.43
2023-04-14T19:58:42.581Z,4.93
2023-04-14T20:01:48.232Z,3.45
2023-04-14T20:07:56.985Z,7.90
2023-04-14T20:11:01.312Z,6.25
2023-04-14T20:14:06.163Z,5.43
2023-04-14T20:17:10.691Z,4.17
2023-04-14T20:20:17.283Z,7.40
2023-04-14T20:23:22.570Z,9.25
2023-04-14T20:26:27.048Z,9.23
2023-04-14T20:29:31.495Z,9.70
2023-04-14T20:32:36.466Z,8.60
2023-04-14T20:35:41.342Z,7.65
2023-04-14T20:38:45.770Z,5.87
2023-04-14T20:41:50.275Z,4.32
2023-04-14T20:44:54.514Z,4.72
2023-04-14T20:47:59.748Z,5.80
2023-04-14T20:51:04.397Z,4.90
2023-04-14T20:54:08.595Z,5.00
2023-04-14T20:57:13.132Z,5.00
2023-04-14T21:00:19.602Z,4.57
2023-04-14T21:03:24.651Z,4.60
2023-04-14T21:06:30.068Z,4.60
2023-04-14T21:09:35.887Z,4.95
2023-04-14T21:13:54.281Z,4.28
2023-04-14T21:16:04.972Z,4.18
2023-04-14T21:19:14.293Z,4.93
2023-04-14T21:22:18.764Z,6.97
2023-04-14T21:25:24.085Z,3.25
2023-04-14T21:28:28.699Z,4.80
2023-04-14T21:31:33.905Z,2.50
2023-04-14T21:34:38.754Z,2.83
2023-04-14T21:37:43.615Z,3.70
2023-04-14T21:40:47.695Z,3.30
2023-04-14T21:43:52.366Z,3.47
2023-04-14T21:46:57.738Z,3.50
2023-04-14T21:50:02.182Z,3.65
2023-04-14T21:53:07.403Z,3.97
2023-04-14T21:56:13.771Z,2.90
2023-04-14T21:59:18.519Z,3.00
2023-04-14T22:02:23.654Z,3.13
2023-04-14T22:05:28.274Z,3.22
2023-04-14T22:08:32.821Z,2.83
2023-04-14T22:11:38.479Z,3.20
2023-04-14T22:17:54.387Z,3.33
2023-04-14T22:20:59.525Z,2.80
2023-04-14T22:24:03.967Z,3.90
2023-04-14T22:27:10.715Z,3.13
2023-04-14T22:30:15.115Z,3.58
2023-04-14T22:33:19.664Z,2.90
2023-04-14T22:36:24.133Z,2.60
2023-04-14T22:39:28.877Z,2.40
2023-04-14T22:42:32.728Z,2.80
2023-04-14T22:45:38.680Z,2.60
2023-04-14T22:48:43.338Z,2.45
2023-04-14T22:51:47.999Z,2.53
2023-04-14T22:54:52.538Z,2.50
2023-04-14T22:57:56.703Z,2.60
2023-04-14T23:01:09.125Z,3.08
2023-04-14T23:04:20.008Z,3.20
2023-04-14T23:07:24.310Z,2.97
2023-04-14T23:10:29.360Z,3.50
2023-04-14T23:13:34.328Z,3.08
2023-04-14T23:16:38.937Z,2.90
2023-04-14T23:19:43.433Z,2.50
2023-04-14T23:22:47.540Z,2.60
2023-04-14T23:25:52.200Z,2.92
2023-04-14T23:28:56.749Z,3.33
2023-04-14T23:32:00.785Z,2.22
2023-04-14T23:35:05.167Z,2.97
2023-04-14T23:38:09.863Z,2.80
2023-04-14T23:41:14.318Z,2.50
2023-04-14T23:44:18.161Z,2.75
2023-04-14T23:47:23.643Z,2.83
2023-04-14T23:51:01.178Z,2.60
2023-04-14T23:53:52.942Z,5.82
2023-04-14T23:56:57.648Z,4.05
